Information Last Ob Photographs Meteogram Network Table Neighbors Monthly Summaries Observation History Wind Roses Custom Wind Roses Data Calendar Download

06 December 2019 Observation History, [MQB] MACOMB MUNI, timezone: America/Chicago

Select Date:

Show METARs   Show High Frequency MADIS

Previous Day
Time Wind
(mph)
Vis.
(mi.)
Sky Cond.
(100s ft)
Present Wx Temperature (ºF) Relative
Humidity
Pressure Precipitation (in.)
Air Dwpt Feels Like 6 hour altimeter
(in.)
sea level
(mb)
1 hr 3 hr 6 hr
Max.Min.
2:15 AMNNW 1210 SCT090
403733 88% 30.050
KMQB 060815Z AUTO 34010KT 10SM SCT090 05/03 A3005 RMK AO2 T00450026
1:55 AMNW 1210 SCT090
433737 80% 30.030
KMQB 060755Z AUTO 32010KT 10SM SCT090 06/03 A3003 RMK AO2 T00630030
1:35 AMNW 910 CLR
443739 76% 30.020
KMQB 060735Z AUTO 31008KT 10SM CLR 07/03 A3002 RMK AO2 T00680029
1:15 AMW 910 CLR
433738 79% 300
KMQB 060715Z AUTO 26008KT 10SM CLR 06/03 A3000 RMK AO2 T00610027
12:55 AMSW 710 CLR
403635 85% 300
KMQB 060655Z AUTO 23006KT 10SM CLR 04/02 A3000 RMK AO2 T00440021
12:35 AMWSW 610 CLR
373533 91% 29.990
KMQB 060635Z AUTO 24005KT 10SM CLR 03/02 A2999 RMK AO2 T00300016
12:15 AMWSW 510 CLR
373533 92% 29.990
KMQB 060615Z AUTO 25004KT 10SM CLR 03/02 A2999 RMK AO2 T00260015

Data Notes

  • For recent years, this page also optionally shows observations from the MADIS High Frequency METAR dataset. This dataset had a problem with temperatures detailed here.